sensor_id;sensor_type;location;lat;lon;timestamp;P1;durP1;ratioP1;P2;durP2;ratioP2
81487;SDS011;70897;52.464;13.428;2023-07-29T00:00:25;12.40;;;9.60;;
81487;SDS011;70897;52.464;13.428;2023-07-29T00:03:12;13.45;;;9.00;;
81487;SDS011;70897;52.464;13.428;2023-07-29T00:05:57;13.77;;;9.45;;
81487;SDS011;70897;52.464;13.428;2023-07-29T00:08:43;11.77;;;10.02;;
81487;SDS011;70897;52.464;13.428;2023-07-29T00:11:28;12.27;;;9.73;;
81487;SDS011;70897;52.464;13.428;2023-07-29T00:14:14;14.40;;;10.38;;
81487;SDS011;70897;52.464;13.428;2023-07-29T00:16:59;13.88;;;10.60;;
81487;SDS011;70897;52.464;13.428;2023-07-29T00:19:45;9.18;;;7.90;;
81487;SDS011;70897;52.464;13.428;2023-07-29T00:22:30;12.18;;;10.48;;
81487;SDS011;70897;52.464;13.428;2023-07-29T00:25:16;17.15;;;11.65;;
81487;SDS011;70897;52.464;13.428;2023-07-29T00:28:02;10.30;;;8.48;;
81487;SDS011;70897;52.464;13.428;2023-07-29T00:30:47;15.35;;;10.85;;
81487;SDS011;70897;52.464;13.428;2023-07-29T00:33:32;15.02;;;10.68;;
81487;SDS011;70897;52.464;13.428;2023-07-29T00:36:18;10.70;;;8.88;;
81487;SDS011;70897;52.464;13.428;2023-07-29T00:39:04;20.40;;;10.07;;
81487;SDS011;70897;52.464;13.428;2023-07-29T00:41:49;14.27;;;9.90;;
81487;SDS011;70897;52.464;13.428;2023-07-29T00:44:35;15.68;;;10.60;;
81487;SDS011;70897;52.464;13.428;2023-07-29T00:47:21;13.57;;;11.05;;
81487;SDS011;70897;52.464;13.428;2023-07-29T00:50:07;15.45;;;11.15;;
81487;SDS011;70897;52.464;13.428;2023-07-29T00:52:54;13.32;;;10.45;;
81487;SDS011;70897;52.464;13.428;2023-07-29T00:55:41;15.02;;;10.52;;
81487;SDS011;70897;52.464;13.428;2023-07-29T00:58:27;14.38;;;10.85;;
81487;SDS011;70897;52.464;13.428;2023-07-29T01:01:12;15.25;;;11.15;;
81487;SDS011;70897;52.464;13.428;2023-07-29T01:03:58;14.20;;;10.65;;
81487;SDS011;70897;52.464;13.428;2023-07-29T01:12:37;13.88;;;10.38;;
81487;SDS011;70897;52.464;13.428;2023-07-29T01:15:28;12.88;;;10.00;;
81487;SDS011;70897;52.464;13.428;2023-07-29T01:18:28;10.73;;;9.27;;
81487;SDS011;70897;52.464;13.428;2023-07-29T01:21:14;15.18;;;10.32;;
81487;SDS011;70897;52.464;13.428;2023-07-29T01:24:02;13.88;;;9.70;;
81487;SDS011;70897;52.464;13.428;2023-07-29T01:26:48;16.67;;;10.70;;
81487;SDS011;70897;52.464;13.428;2023-07-29T01:29:33;13.55;;;11.23;;
81487;SDS011;70897;52.464;13.428;2023-07-29T01:32:20;13.32;;;11.00;;
81487;SDS011;70897;52.464;13.428;2023-07-29T01:38:05;15.50;;;9.55;;
81487;SDS011;70897;52.464;13.428;2023-07-29T01:40:52;14.07;;;10.80;;
81487;SDS011;70897;52.464;13.428;2023-07-29T01:43:38;11.75;;;8.95;;
81487;SDS011;70897;52.464;13.428;2023-07-29T01:46:28;15.00;;;10.50;;
81487;SDS011;70897;52.464;13.428;2023-07-29T01:49:13;15.00;;;10.90;;
81487;SDS011;70897;52.464;13.428;2023-07-29T01:51:59;13.70;;;10.07;;
81487;SDS011;70897;52.464;13.428;2023-07-29T01:54:44;12.20;;;9.85;;
81487;SDS011;70897;52.464;13.428;2023-07-29T01:57:30;13.77;;;11.02;;
81487;SDS011;70897;52.464;13.428;2023-07-29T02:00:15;14.35;;;10.57;;
81487;SDS011;70897;52.464;13.428;2023-07-29T02:03:02;11.35;;;9.00;;
81487;SDS011;70897;52.464;13.428;2023-07-29T02:05:47;13.18;;;10.68;;
81487;SDS011;70897;52.464;13.428;2023-07-29T02:08:33;14.98;;;11.02;;
81487;SDS011;70897;52.464;13.428;2023-07-29T02:11:18;10.07;;;8.93;;
81487;SDS011;70897;52.464;13.428;2023-07-29T02:14:04;14.80;;;10.65;;
81487;SDS011;70897;52.464;13.428;2023-07-29T02:16:50;14.27;;;9.38;;
81487;SDS011;70897;52.464;13.428;2023-07-29T02:19:36;12.70;;;9.35;;
81487;SDS011;70897;52.464;13.428;2023-07-29T02:22:21;12.43;;;9.65;;
81487;SDS011;70897;52.464;13.428;2023-07-29T02:25:06;18.27;;;11.52;;
81487;SDS011;70897;52.464;13.428;2023-07-29T02:27:52;12.18;;;10.68;;
81487;SDS011;70897;52.464;13.428;2023-07-29T02:30:41;16.55;;;10.45;;
81487;SDS011;70897;52.464;13.428;2023-07-29T02:33:28;13.55;;;11.60;;
81487;SDS011;70897;52.464;13.428;2023-07-29T02:36:14;15.95;;;10.95;;
81487;SDS011;70897;52.464;13.428;2023-07-29T02:38:59;17.48;;;10.95;;
81487;SDS011;70897;52.464;13.428;2023-07-29T02:41:44;15.02;;;11.70;;
81487;SDS011;70897;52.464;13.428;2023-07-29T02:44:30;12.52;;;10.35;;
81487;SDS011;70897;52.464;13.428;2023-07-29T02:47:15;12.30;;;11.00;;
81487;SDS011;70897;52.464;13.428;2023-07-29T02:50:01;13.95;;;10.43;;
81487;SDS011;70897;52.464;13.428;2023-07-29T02:52:46;11.48;;;9.48;;
81487;SDS011;70897;52.464;13.428;2023-07-29T02:55:32;13.55;;;10.50;;
81487;SDS011;70897;52.464;13.428;2023-07-29T02:58:17;15.60;;;10.95;;
81487;SDS011;70897;52.464;13.428;2023-07-29T03:01:03;15.15;;;11.15;;
81487;SDS011;70897;52.464;13.428;2023-07-29T03:03:48;13.27;;;10.02;;
81487;SDS011;70897;52.464;13.428;2023-07-29T03:06:34;12.95;;;10.75;;
81487;SDS011;70897;52.464;13.428;2023-07-29T03:09:20;14.70;;;10.20;;
81487;SDS011;70897;52.464;13.428;2023-07-29T03:12:05;11.82;;;9.43;;
81487;SDS011;70897;52.464;13.428;2023-07-29T03:14:51;14.88;;;11.05;;
81487;SDS011;70897;52.464;13.428;2023-07-29T03:17:36;15.38;;;11.05;;
81487;SDS011;70897;52.464;13.428;2023-07-29T03:20:22;13.95;;;10.65;;
81487;SDS011;70897;52.464;13.428;2023-07-29T03:23:07;15.93;;;10.30;;
81487;SDS011;70897;52.464;13.428;2023-07-29T03:25:54;11.98;;;9.75;;
81487;SDS011;70897;52.464;13.428;2023-07-29T03:28:41;12.10;;;10.13;;
81487;SDS011;70897;52.464;13.428;2023-07-29T03:31:27;12.05;;;10.45;;
81487;SDS011;70897;52.464;13.428;2023-07-29T03:34:12;13.10;;;10.52;;
81487;SDS011;70897;52.464;13.428;2023-07-29T03:37:00;13.10;;;10.90;;
81487;SDS011;70897;52.464;13.428;2023-07-29T03:39:45;13.30;;;9.88;;
81487;SDS011;70897;52.464;13.428;2023-07-29T03:42:32;15.00;;;10.18;;
81487;SDS011;70897;52.464;13.428;2023-07-29T03:45:17;12.52;;;10.85;;
81487;SDS011;70897;52.464;13.428;2023-07-29T03:48:03;14.82;;;10.30;;
81487;SDS011;70897;52.464;13.428;2023-07-29T03:50:48;14.55;;;11.07;;
81487;SDS011;70897;52.464;13.428;2023-07-29T03:53:34;16.88;;;10.55;;
81487;SDS011;70897;52.464;13.428;2023-07-29T03:56:20;12.20;;;10.38;;
81487;SDS011;70897;52.464;13.428;2023-07-29T03:59:05;13.50;;;10.38;;
81487;SDS011;70897;52.464;13.428;2023-07-29T04:01:51;15.57;;;10.70;;
81487;SDS011;70897;52.464;13.428;2023-07-29T04:04:36;19.33;;;10.75;;
81487;SDS011;70897;52.464;13.428;2023-07-29T04:07:22;11.75;;;9.82;;
81487;SDS011;70897;52.464;13.428;2023-07-29T04:10:07;10.45;;;9.25;;
81487;SDS011;70897;52.464;13.428;2023-07-29T04:12:53;12.82;;;10.77;;
81487;SDS011;70897;52.464;13.428;2023-07-29T04:15:37;12.98;;;9.65;;
81487;SDS011;70897;52.464;13.428;2023-07-29T04:18:23;10.85;;;9.63;;
81487;SDS011;70897;52.464;13.428;2023-07-29T04:21:09;10.82;;;9.43;;
81487;SDS011;70897;52.464;13.428;2023-07-29T04:23:54;15.07;;;9.50;;
81487;SDS011;70897;52.464;13.428;2023-07-29T04:26:40;11.43;;;9.15;;
81487;SDS011;70897;52.464;13.428;2023-07-29T04:29:25;11.88;;;8.80;;
81487;SDS011;70897;52.464;13.428;2023-07-29T04:32:11;11.38;;;8.98;;
81487;SDS011;70897;52.464;13.428;2023-07-29T04:34:56;12.02;;;8.45;;
81487;SDS011;70897;52.464;13.428;2023-07-29T04:37:41;9.27;;;8.32;;
81487;SDS011;70897;52.464;13.428;2023-07-29T04:40:27;11.18;;;8.15;;
81487;SDS011;70897;52.464;13.428;2023-07-29T04:43:12;9.98;;;8.05;;
81487;SDS011;70897;52.464;13.428;2023-07-29T04:45:58;10.25;;;8.13;;
81487;SDS011;70897;52.464;13.428;2023-07-29T04:48:43;13.10;;;8.43;;
81487;SDS011;70897;52.464;13.428;2023-07-29T04:51:29;9.60;;;8.57;;
81487;SDS011;70897;52.464;13.428;2023-07-29T04:54:16;9.85;;;8.18;;
81487;SDS011;70897;52.464;13.428;2023-07-29T04:57:01;8.48;;;7.53;;
81487;SDS011;70897;52.464;13.428;2023-07-29T04:59:47;9.88;;;7.70;;
81487;SDS011;70897;52.464;13.428;2023-07-29T05:02:33;8.38;;;7.57;;
81487;SDS011;70897;52.464;13.428;2023-07-29T05:05:18;8.23;;;7.32;;
81487;SDS011;70897;52.464;13.428;2023-07-29T05:08:03;9.98;;;7.70;;
81487;SDS011;70897;52.464;13.428;2023-07-29T05:10:49;9.95;;;7.38;;
81487;SDS011;70897;52.464;13.428;2023-07-29T05:13:34;8.27;;;7.43;;
81487;SDS011;70897;52.464;13.428;2023-07-29T05:16:20;10.82;;;7.72;;
81487;SDS011;70897;52.464;13.428;2023-07-29T05:19:05;9.27;;;7.28;;
81487;SDS011;70897;52.464;13.428;2023-07-29T05:21:51;10.10;;;8.18;;
81487;SDS011;70897;52.464;13.428;2023-07-29T05:24:36;8.02;;;7.18;;
81487;SDS011;70897;52.464;13.428;2023-07-29T05:27:21;6.70;;;5.97;;
81487;SDS011;70897;52.464;13.428;2023-07-29T05:30:07;7.25;;;6.28;;
81487;SDS011;70897;52.464;13.428;2023-07-29T05:32:53;8.35;;;6.28;;
81487;SDS011;70897;52.464;13.428;2023-07-29T05:35:38;6.97;;;5.97;;
81487;SDS011;70897;52.464;13.428;2023-07-29T05:38:24;6.40;;;5.78;;
81487;SDS011;70897;52.464;13.428;2023-07-29T05:41:09;11.10;;;6.30;;
81487;SDS011;70897;52.464;13.428;2023-07-29T05:43:54;9.45;;;6.00;;
81487;SDS011;70897;52.464;13.428;2023-07-29T05:46:40;6.47;;;5.88;;
81487;SDS011;70897;52.464;13.428;2023-07-29T05:49:25;6.75;;;5.53;;
81487;SDS011;70897;52.464;13.428;2023-07-29T05:52:11;7.93;;;4.75;;
81487;SDS011;70897;52.464;13.428;2023-07-29T05:54:56;5.90;;;4.78;;
81487;SDS011;70897;52.464;13.428;2023-07-29T05:57:42;5.85;;;4.80;;
81487;SDS011;70897;52.464;13.428;2023-07-29T06:00:27;5.00;;;4.55;;
81487;SDS011;70897;52.464;13.428;2023-07-29T06:03:12;5.95;;;4.30;;
81487;SDS011;70897;52.464;13.428;2023-07-29T06:05:57;6.85;;;4.18;;
81487;SDS011;70897;52.464;13.428;2023-07-29T06:08:43;5.65;;;4.20;;
81487;SDS011;70897;52.464;13.428;2023-07-29T06:11:28;5.03;;;3.70;;
81487;SDS011;70897;52.464;13.428;2023-07-29T06:14:14;4.35;;;3.92;;
81487;SDS011;70897;52.464;13.428;2023-07-29T06:16:59;4.10;;;3.70;;
81487;SDS011;70897;52.464;13.428;2023-07-29T06:19:45;5.72;;;3.80;;
81487;SDS011;70897;52.464;13.428;2023-07-29T06:22:30;5.07;;;3.38;;
81487;SDS011;70897;52.464;13.428;2023-07-29T06:25:16;3.97;;;3.53;;
81487;SDS011;70897;52.464;13.428;2023-07-29T06:28:01;5.28;;;3.53;;
81487;SDS011;70897;52.464;13.428;2023-07-29T06:30:46;5.38;;;3.10;;
81487;SDS011;70897;52.464;13.428;2023-07-29T06:33:31;5.20;;;3.28;;
81487;SDS011;70897;52.464;13.428;2023-07-29T06:36:17;3.95;;;3.05;;
81487;SDS011;70897;52.464;13.428;2023-07-29T06:39:02;4.10;;;2.95;;
81487;SDS011;70897;52.464;13.428;2023-07-29T06:41:47;3.95;;;2.75;;
81487;SDS011;70897;52.464;13.428;2023-07-29T06:44:33;3.45;;;3.15;;
81487;SDS011;70897;52.464;13.428;2023-07-29T06:47:18;4.35;;;3.22;;
81487;SDS011;70897;52.464;13.428;2023-07-29T06:50:03;9.68;;;7.88;;
81487;SDS011;70897;52.464;13.428;2023-07-29T06:52:49;8.32;;;6.75;;
81487;SDS011;70897;52.464;13.428;2023-07-29T06:55:34;7.88;;;6.55;;
81487;SDS011;70897;52.464;13.428;2023-07-29T06:58:20;3.58;;;3.28;;
81487;SDS011;70897;52.464;13.428;2023-07-29T07:01:05;4.55;;;3.55;;
81487;SDS011;70897;52.464;13.428;2023-07-29T07:03:50;4.72;;;4.07;;
81487;SDS011;70897;52.464;13.428;2023-07-29T07:06:38;5.47;;;3.47;;
81487;SDS011;70897;52.464;13.428;2023-07-29T07:09:23;5.05;;;3.28;;
81487;SDS011;70897;52.464;13.428;2023-07-29T07:12:09;7.00;;;4.47;;
81487;SDS011;70897;52.464;13.428;2023-07-29T07:14:54;4.72;;;3.08;;
81487;SDS011;70897;52.464;13.428;2023-07-29T07:17:39;5.18;;;3.33;;
81487;SDS011;70897;52.464;13.428;2023-07-29T07:20:25;5.82;;;3.30;;
81487;SDS011;70897;52.464;13.428;2023-07-29T07:23:09;4.05;;;3.20;;
81487;SDS011;70897;52.464;13.428;2023-07-29T07:25:57;4.97;;;3.17;;
81487;SDS011;70897;52.464;13.428;2023-07-29T07:28:42;3.00;;;2.80;;
81487;SDS011;70897;52.464;13.428;2023-07-29T07:31:27;5.32;;;3.22;;
81487;SDS011;70897;52.464;13.428;2023-07-29T07:34:13;4.28;;;3.20;;
81487;SDS011;70897;52.464;13.428;2023-07-29T07:36:58;7.75;;;5.05;;
81487;SDS011;70897;52.464;13.428;2023-07-29T07:39:43;3.60;;;3.20;;
81487;SDS011;70897;52.464;13.428;2023-07-29T07:42:28;8.27;;;4.28;;
81487;SDS011;70897;52.464;13.428;2023-07-29T07:45:14;2.90;;;2.53;;
81487;SDS011;70897;52.464;13.428;2023-07-29T07:47:59;2.75;;;2.47;;
81487;SDS011;70897;52.464;13.428;2023-07-29T07:50:45;3.65;;;2.50;;
81487;SDS011;70897;52.464;13.428;2023-07-29T07:53:30;5.30;;;2.80;;
81487;SDS011;70897;52.464;13.428;2023-07-29T07:56:15;3.33;;;2.72;;
81487;SDS011;70897;52.464;13.428;2023-07-29T07:59:01;2.60;;;2.40;;
81487;SDS011;70897;52.464;13.428;2023-07-29T08:01:46;7.65;;;5.80;;
81487;SDS011;70897;52.464;13.428;2023-07-29T08:04:32;5.50;;;4.05;;
81487;SDS011;70897;52.464;13.428;2023-07-29T08:07:17;2.53;;;2.28;;
81487;SDS011;70897;52.464;13.428;2023-07-29T08:10:02;4.88;;;3.30;;
81487;SDS011;70897;52.464;13.428;2023-07-29T08:12:48;2.88;;;2.63;;
81487;SDS011;70897;52.464;13.428;2023-07-29T08:15:34;3.97;;;2.45;;
81487;SDS011;70897;52.464;13.428;2023-07-29T08:18:19;4.38;;;3.15;;
81487;SDS011;70897;52.464;13.428;2023-07-29T08:21:05;4.63;;;2.90;;
81487;SDS011;70897;52.464;13.428;2023-07-29T08:23:50;3.35;;;2.70;;
81487;SDS011;70897;52.464;13.428;2023-07-29T08:26:35;7.22;;;6.50;;
81487;SDS011;70897;52.464;13.428;2023-07-29T08:29:20;10.63;;;7.90;;
81487;SDS011;70897;52.464;13.428;2023-07-29T08:32:05;4.57;;;2.75;;
81487;SDS011;70897;52.464;13.428;2023-07-29T08:34:51;3.25;;;2.30;;
81487;SDS011;70897;52.464;13.428;2023-07-29T08:37:36;4.15;;;2.80;;
81487;SDS011;70897;52.464;13.428;2023-07-29T08:40:23;8.45;;;4.13;;
81487;SDS011;70897;52.464;13.428;2023-07-29T08:43:12;2.65;;;2.38;;
81487;SDS011;70897;52.464;13.428;2023-07-29T08:45:59;2.35;;;2.15;;
81487;SDS011;70897;52.464;13.428;2023-07-29T08:48:44;5.72;;;3.92;;
81487;SDS011;70897;52.464;13.428;2023-07-29T08:51:31;10.05;;;7.72;;
81487;SDS011;70897;52.464;13.428;2023-07-29T08:54:16;4.93;;;2.53;;
81487;SDS011;70897;52.464;13.428;2023-07-29T08:57:02;4.88;;;2.80;;
81487;SDS011;70897;52.464;13.428;2023-07-29T08:59:48;3.17;;;2.80;;
81487;SDS011;70897;52.464;13.428;2023-07-29T09:02:33;2.53;;;2.25;;
81487;SDS011;70897;52.464;13.428;2023-07-29T09:05:20;4.10;;;2.45;;
81487;SDS011;70897;52.464;13.428;2023-07-29T09:08:05;2.38;;;2.10;;
81487;SDS011;70897;52.464;13.428;2023-07-29T09:10:50;2.40;;;2.20;;
81487;SDS011;70897;52.464;13.428;2023-07-29T09:13:36;3.00;;;2.00;;
81487;SDS011;70897;52.464;13.428;2023-07-29T09:16:21;4.97;;;2.28;;
81487;SDS011;70897;52.464;13.428;2023-07-29T09:19:07;2.67;;;2.28;;
81487;SDS011;70897;52.464;13.428;2023-07-29T09:21:52;4.15;;;2.17;;
81487;SDS011;70897;52.464;13.428;2023-07-29T09:24:37;4.25;;;2.50;;
81487;SDS011;70897;52.464;13.428;2023-07-29T09:27:26;2.35;;;2.15;;
81487;SDS011;70897;52.464;13.428;2023-07-29T09:30:15;3.00;;;1.95;;
81487;SDS011;70897;52.464;13.428;2023-07-29T09:33:06;3.60;;;2.15;;
81487;SDS011;70897;52.464;13.428;2023-07-29T09:35:52;3.05;;;2.20;;
81487;SDS011;70897;52.464;13.428;2023-07-29T09:38:37;4.45;;;2.20;;
81487;SDS011;70897;52.464;13.428;2023-07-29T09:41:27;3.67;;;2.33;;
81487;SDS011;70897;52.464;13.428;2023-07-29T09:44:13;3.47;;;2.08;;
81487;SDS011;70897;52.464;13.428;2023-07-29T09:46:58;2.50;;;1.90;;
81487;SDS011;70897;52.464;13.428;2023-07-29T09:49:44;2.45;;;2.25;;
81487;SDS011;70897;52.464;13.428;2023-07-29T09:52:29;2.97;;;2.50;;
81487;SDS011;70897;52.464;13.428;2023-07-29T09:55:19;4.00;;;2.15;;
81487;SDS011;70897;52.464;13.428;2023-07-29T09:58:08;2.57;;;2.10;;
81487;SDS011;70897;52.464;13.428;2023-07-29T10:00:53;2.50;;;1.92;;
81487;SDS011;70897;52.464;13.428;2023-07-29T10:03:39;3.80;;;2.08;;
81487;SDS011;70897;52.464;13.428;2023-07-29T10:06:24;2.25;;;1.90;;
81487;SDS011;70897;52.464;13.428;2023-07-29T10:09:13;3.60;;;1.80;;
81487;SDS011;70897;52.464;13.428;2023-07-29T10:11:59;3.17;;;1.88;;
81487;SDS011;70897;52.464;13.428;2023-07-29T10:14:44;3.30;;;2.00;;
81487;SDS011;70897;52.464;13.428;2023-07-29T10:17:40;2.30;;;1.80;;
81487;SDS011;70897;52.464;13.428;2023-07-29T10:20:26;3.85;;;2.00;;
81487;SDS011;70897;52.464;13.428;2023-07-29T10:23:11;2.15;;;1.75;;
81487;SDS011;70897;52.464;13.428;2023-07-29T10:26:01;3.63;;;1.90;;
81487;SDS011;70897;52.464;13.428;2023-07-29T10:28:48;3.28;;;1.98;;
81487;SDS011;70897;52.464;13.428;2023-07-29T10:31:37;4.18;;;2.20;;
81487;SDS011;70897;52.464;13.428;2023-07-29T10:34:24;6.00;;;1.60;;
81487;SDS011;70897;52.464;13.428;2023-07-29T10:37:10;3.17;;;1.70;;
81487;SDS011;70897;52.464;13.428;2023-07-29T10:39:55;1.90;;;1.63;;
81487;SDS011;70897;52.464;13.428;2023-07-29T10:42:58;3.78;;;2.03;;
81487;SDS011;70897;52.464;13.428;2023-07-29T10:45:45;3.50;;;1.92;;
81487;SDS011;70897;52.464;13.428;2023-07-29T10:51:26;2.08;;;1.60;;
81487;SDS011;70897;52.464;13.428;2023-07-29T10:54:14;3.03;;;1.88;;
81487;SDS011;70897;52.464;13.428;2023-07-29T10:57:00;2.40;;;1.40;;
81487;SDS011;70897;52.464;13.428;2023-07-29T10:59:55;1.60;;;1.35;;
81487;SDS011;70897;52.464;13.428;2023-07-29T11:02:41;1.58;;;1.48;;
81487;SDS011;70897;52.464;13.428;2023-07-29T11:05:26;3.78;;;1.70;;
81487;SDS011;70897;52.464;13.428;2023-07-29T11:08:19;2.67;;;1.92;;
81487;SDS011;70897;52.464;13.428;2023-07-29T11:13:50;2.42;;;1.80;;
81487;SDS011;70897;52.464;13.428;2023-07-29T11:16:36;3.17;;;1.92;;
81487;SDS011;70897;52.464;13.428;2023-07-29T11:19:21;9.95;;;3.95;;
81487;SDS011;70897;52.464;13.428;2023-07-29T11:22:06;16.13;;;3.70;;
81487;SDS011;70897;52.464;13.428;2023-07-29T11:24:52;12.68;;;3.58;;
81487;SDS011;70897;52.464;13.428;2023-07-29T11:27:38;5.10;;;2.33;;
81487;SDS011;70897;52.464;13.428;2023-07-29T11:30:24;2.30;;;1.60;;
81487;SDS011;70897;52.464;13.428;2023-07-29T11:33:13;5.53;;;3.45;;
81487;SDS011;70897;52.464;13.428;2023-07-29T11:35:59;2.95;;;1.92;;
81487;SDS011;70897;52.464;13.428;2023-07-29T11:38:44;3.70;;;1.80;;
81487;SDS011;70897;52.464;13.428;2023-07-29T11:41:29;2.65;;;1.95;;
81487;SDS011;70897;52.464;13.428;2023-07-29T11:44:18;4.22;;;2.40;;
81487;SDS011;70897;52.464;13.428;2023-07-29T11:47:10;2.67;;;1.83;;
81487;SDS011;70897;52.464;13.428;2023-07-29T11:49:58;2.95;;;2.00;;
81487;SDS011;70897;52.464;13.428;2023-07-29T11:52:45;4.43;;;2.90;;
81487;SDS011;70897;52.464;13.428;2023-07-29T11:55:30;6.38;;;3.20;;
81487;SDS011;70897;52.464;13.428;2023-07-29T11:58:18;5.53;;;3.08;;
81487;SDS011;70897;52.464;13.428;2023-07-29T12:01:04;4.47;;;3.00;;
81487;SDS011;70897;52.464;13.428;2023-07-29T12:03:50;3.55;;;2.67;;
81487;SDS011;70897;52.464;13.428;2023-07-29T12:06:35;8.10;;;3.20;;
81487;SDS011;70897;52.464;13.428;2023-07-29T12:09:20;4.10;;;2.58;;
81487;SDS011;70897;52.464;13.428;2023-07-29T12:12:06;9.18;;;6.78;;
81487;SDS011;70897;52.464;13.428;2023-07-29T12:14:53;13.00;;;10.38;;
81487;SDS011;70897;52.464;13.428;2023-07-29T12:17:39;6.85;;;3.08;;
81487;SDS011;70897;52.464;13.428;2023-07-29T12:20:25;6.35;;;2.53;;
81487;SDS011;70897;52.464;13.428;2023-07-29T12:23:10;3.00;;;2.60;;
81487;SDS011;70897;52.464;13.428;2023-07-29T12:25:56;5.15;;;3.10;;
81487;SDS011;70897;52.464;13.428;2023-07-29T12:28:45;4.15;;;3.03;;
81487;SDS011;70897;52.464;13.428;2023-07-29T12:31:31;5.18;;;2.80;;
81487;SDS011;70897;52.464;13.428;2023-07-29T12:34:17;5.90;;;3.20;;
81487;SDS011;70897;52.464;13.428;2023-07-29T12:37:03;14.90;;;9.63;;
81487;SDS011;70897;52.464;13.428;2023-07-29T12:39:49;65.00;;;44.22;;
81487;SDS011;70897;52.464;13.428;2023-07-29T12:42:35;5.70;;;3.35;;
81487;SDS011;70897;52.464;13.428;2023-07-29T12:45:20;9.15;;;5.53;;
81487;SDS011;70897;52.464;13.428;2023-07-29T12:48:10;4.68;;;2.95;;
81487;SDS011;70897;52.464;13.428;2023-07-29T12:50:56;6.00;;;2.90;;
81487;SDS011;70897;52.464;13.428;2023-07-29T12:53:41;4.90;;;2.50;;
81487;SDS011;70897;52.464;13.428;2023-07-29T12:56:26;5.43;;;2.33;;
81487;SDS011;70897;52.464;13.428;2023-07-29T12:59:11;4.70;;;3.83;;
81487;SDS011;70897;52.464;13.428;2023-07-29T13:01:56;5.20;;;2.90;;
81487;SDS011;70897;52.464;13.428;2023-07-29T13:04:41;18.65;;;12.25;;
81487;SDS011;70897;52.464;13.428;2023-07-29T13:07:26;5.50;;;2.60;;
81487;SDS011;70897;52.464;13.428;2023-07-29T13:10:11;3.83;;;2.20;;
81487;SDS011;70897;52.464;13.428;2023-07-29T13:12:57;3.15;;;2.03;;
81487;SDS011;70897;52.464;13.428;2023-07-29T13:15:43;9.43;;;7.28;;
81487;SDS011;70897;52.464;13.428;2023-07-29T13:18:29;2.67;;;2.10;;
81487;SDS011;70897;52.464;13.428;2023-07-29T13:21:14;3.63;;;2.60;;
81487;SDS011;70897;52.464;13.428;2023-07-29T13:23:59;3.17;;;2.15;;
81487;SDS011;70897;52.464;13.428;2023-07-29T13:26:44;7.80;;;4.78;;
81487;SDS011;70897;52.464;13.428;2023-07-29T13:29:29;3.20;;;2.65;;
81487;SDS011;70897;52.464;13.428;2023-07-29T13:32:15;2.70;;;2.17;;
81487;SDS011;70897;52.464;13.428;2023-07-29T13:35:00;4.90;;;2.55;;
81487;SDS011;70897;52.464;13.428;2023-07-29T13:37:45;2.40;;;2.00;;
81487;SDS011;70897;52.464;13.428;2023-07-29T13:40:30;4.53;;;2.67;;
81487;SDS011;70897;52.464;13.428;2023-07-29T13:43:16;4.57;;;2.22;;
81487;SDS011;70897;52.464;13.428;2023-07-29T13:46:01;4.55;;;2.28;;
81487;SDS011;70897;52.464;13.428;2023-07-29T13:48:46;5.07;;;2.10;;
81487;SDS011;70897;52.464;13.428;2023-07-29T13:51:31;2.40;;;1.88;;
81487;SDS011;70897;52.464;13.428;2023-07-29T13:54:17;2.45;;;1.55;;
81487;SDS011;70897;52.464;13.428;2023-07-29T13:57:02;3.67;;;2.25;;
81487;SDS011;70897;52.464;13.428;2023-07-29T13:59:50;1.83;;;1.50;;
81487;SDS011;70897;52.464;13.428;2023-07-29T14:02:35;2.90;;;1.60;;
81487;SDS011;70897;52.464;13.428;2023-07-29T14:05:20;2.78;;;1.73;;
81487;SDS011;70897;52.464;13.428;2023-07-29T14:08:05;2.47;;;1.58;;
81487;SDS011;70897;52.464;13.428;2023-07-29T14:10:50;2.55;;;2.00;;
81487;SDS011;70897;52.464;13.428;2023-07-29T14:13:35;3.05;;;1.60;;
81487;SDS011;70897;52.464;13.428;2023-07-29T14:16:20;1.80;;;1.50;;
81487;SDS011;70897;52.464;13.428;2023-07-29T14:19:05;1.70;;;1.40;;
81487;SDS011;70897;52.464;13.428;2023-07-29T14:21:50;2.25;;;1.50;;
81487;SDS011;70897;52.464;13.428;2023-07-29T14:24:35;2.92;;;1.33;;
81487;SDS011;70897;52.464;13.428;2023-07-29T14:27:20;2.28;;;1.33;;
81487;SDS011;70897;52.464;13.428;2023-07-29T14:30:05;2.55;;;1.10;;
81487;SDS011;70897;52.464;13.428;2023-07-29T14:32:51;2.75;;;1.30;;
81487;SDS011;70897;52.464;13.428;2023-07-29T14:35:36;1.67;;;1.35;;
81487;SDS011;70897;52.464;13.428;2023-07-29T14:38:21;1.65;;;1.30;;
81487;SDS011;70897;52.464;13.428;2023-07-29T14:41:06;4.65;;;1.50;;
81487;SDS011;70897;52.464;13.428;2023-07-29T14:43:51;4.25;;;1.38;;
81487;SDS011;70897;52.464;13.428;2023-07-29T14:46:36;2.58;;;1.30;;
81487;SDS011;70897;52.464;13.428;2023-07-29T14:49:21;2.15;;;1.40;;
81487;SDS011;70897;52.464;13.428;2023-07-29T14:52:06;1.35;;;1.25;;
81487;SDS011;70897;52.464;13.428;2023-07-29T14:54:51;4.93;;;3.60;;
81487;SDS011;70897;52.464;13.428;2023-07-29T14:57:36;2.42;;;1.95;;
81487;SDS011;70897;52.464;13.428;2023-07-29T15:00:21;4.90;;;3.30;;
81487;SDS011;70897;52.464;13.428;2023-07-29T15:03:06;3.05;;;2.22;;
81487;SDS011;70897;52.464;13.428;2023-07-29T15:05:52;3.47;;;2.13;;
81487;SDS011;70897;52.464;13.428;2023-07-29T15:08:37;3.63;;;2.00;;
81487;SDS011;70897;52.464;13.428;2023-07-29T15:11:22;3.10;;;2.03;;
81487;SDS011;70897;52.464;13.428;2023-07-29T15:14:07;2.95;;;2.10;;
81487;SDS011;70897;52.464;13.428;2023-07-29T15:16:52;7.57;;;2.58;;
81487;SDS011;70897;52.464;13.428;2023-07-29T15:19:37;5.20;;;2.28;;
81487;SDS011;70897;52.464;13.428;2023-07-29T15:22:22;5.45;;;2.85;;
81487;SDS011;70897;52.464;13.428;2023-07-29T15:25:08;3.17;;;1.90;;
81487;SDS011;70897;52.464;13.428;2023-07-29T15:27:54;5.28;;;1.90;;
81487;SDS011;70897;52.464;13.428;2023-07-29T15:30:39;2.47;;;1.52;;
81487;SDS011;70897;52.464;13.428;2023-07-29T15:33:24;7.35;;;1.95;;
81487;SDS011;70897;52.464;13.428;2023-07-29T15:36:09;4.45;;;1.98;;
81487;SDS011;70897;52.464;13.428;2023-07-29T15:38:54;2.95;;;1.70;;
81487;SDS011;70897;52.464;13.428;2023-07-29T15:41:39;1.73;;;1.55;;
81487;SDS011;70897;52.464;13.428;2023-07-29T15:44:24;1.88;;;1.42;;
81487;SDS011;70897;52.464;13.428;2023-07-29T15:47:09;4.47;;;1.77;;
81487;SDS011;70897;52.464;13.428;2023-07-29T15:49:56;3.15;;;1.35;;
81487;SDS011;70897;52.464;13.428;2023-07-29T15:52:42;2.78;;;1.60;;
81487;SDS011;70897;52.464;13.428;2023-07-29T15:55:27;3.13;;;1.83;;
81487;SDS011;70897;52.464;13.428;2023-07-29T15:58:12;4.35;;;2.42;;
81487;SDS011;70897;52.464;13.428;2023-07-29T16:00:57;5.97;;;2.10;;
81487;SDS011;70897;52.464;13.428;2023-07-29T16:03:42;4.35;;;2.20;;
81487;SDS011;70897;52.464;13.428;2023-07-29T16:06:27;6.68;;;2.17;;
81487;SDS011;70897;52.464;13.428;2023-07-29T16:09:12;4.60;;;1.90;;
81487;SDS011;70897;52.464;13.428;2023-07-29T16:11:57;3.63;;;2.08;;
81487;SDS011;70897;52.464;13.428;2023-07-29T16:14:42;4.10;;;2.10;;
81487;SDS011;70897;52.464;13.428;2023-07-29T16:17:27;4.70;;;1.98;;
81487;SDS011;70897;52.464;13.428;2023-07-29T16:20:12;5.18;;;2.25;;
81487;SDS011;70897;52.464;13.428;2023-07-29T16:22:57;4.50;;;2.03;;
81487;SDS011;70897;52.464;13.428;2023-07-29T16:25:42;4.28;;;2.13;;
81487;SDS011;70897;52.464;13.428;2023-07-29T16:28:27;8.32;;;2.50;;
81487;SDS011;70897;52.464;13.428;2023-07-29T16:31:12;4.72;;;2.13;;